Time;durP1;ratioP1;P1;durP2;ratioP2;P2;SDS_P1;SDS_P2;PMS_P1;PMS_P2;Temp;Humidity;BMP_temperature;BMP_pressure;BME280_temperature;BME280_humidity;BME280_pressure;Samples;Min_cycle;Max_cycle;Signal;HPM_P1;HPM_P2
2023/08/15 00:01:52;;;;;;;9.35;7.30;;;;;;;23.41;75.86;98124.38;4986671;28;20018;-79
2023/08/15 00:04:18;;;;;;;8.27;6.82;;;;;;;23.49;76.28;98136.50;4994392;28;20049;-80
2023/08/15 00:06:43;;;;;;;7.45;6.60;;;;;;;23.36;75.97;98113.59;4998364;28;20480;-79
2023/08/15 00:09:08;;;;;;;9.45;7.07;;;;;;;23.33;75.79;98105.97;4966958;28;20129;-80
2023/08/15 00:11:34;;;;;;;7.82;7.03;;;;;;;23.37;75.79;98120.69;4991921;28;20018;-79
2023/08/15 00:13:59;;;;;;;11.57;8.02;;;;;;;23.18;76.66;98128.47;4998961;28;20036;-79
2023/08/15 00:16:25;;;;;;;7.75;7.00;;;;;;;23.17;76.68;98116.72;4976072;28;20099;-78
2023/08/15 00:18:50;;;;;;;8.00;7.20;;;;;;;23.08;76.59;98095.88;4996696;28;20136;-78
2023/08/15 00:21:16;;;;;;;9.95;7.47;;;;;;;23.20;76.54;98132.53;4983151;28;20029;-78
2023/08/15 00:23:41;;;;;;;9.55;6.43;;;;;;;22.99;76.55;98109.63;4998209;28;20042;-77
2023/08/15 00:26:07;;;;;;;9.95;6.97;;;;;;;23.08;76.60;98124.13;4995456;28;20030;-81
2023/08/15 00:28:32;;;;;;;8.48;6.53;;;;;;;23.08;76.72;98129.63;5004234;28;20037;-78
2023/08/15 00:30:58;;;;;;;9.32;6.90;;;;;;;23.13;76.98;98143.22;4968410;28;20086;-79
2023/08/15 00:33:24;;;;;;;9.88;6.82;;;;;;;22.99;76.72;98109.63;5005697;28;20041;-80
2023/08/15 00:35:49;;;;;;;8.10;6.68;;;;;;;23.11;76.56;98126.25;4976185;28;20022;-80
2023/08/15 00:38:15;;;;;;;9.40;6.57;;;;;;;22.97;76.93;98111.91;4981764;28;20033;-80
2023/08/15 00:40:40;;;;;;;11.35;6.78;;;;;;;23.11;77.14;98122.69;4979078;28;20037;-78
2023/08/15 00:43:06;;;;;;;8.02;7.18;;;;;;;23.08;76.64;98123.34;4997446;28;20042;-80
2023/08/15 00:45:32;;;;;;;8.50;7.18;;;;;;;23.07;76.51;98127.22;4981293;28;20081;-83
2023/08/15 00:47:58;;;;;;;7.50;6.70;;;;;;;22.85;77.31;98120.00;4981404;28;20108;-82
2023/08/15 00:50:29;;;;;;;8.55;7.68;;;;;;;22.76;77.54;98127.44;5010630;28;20022;-82
2023/08/15 00:52:55;;;;;;;9.20;8.30;;;;;;;22.46;78.11;98100.94;5010988;28;20027;-81
2023/08/15 00:55:56;;;;;;;10.02;7.13;;;;;;;22.10;77.84;98037.38;4990387;28;20088;-84
2023/08/15 00:58:39;;;;;;;7.93;7.10;;;;;;;22.09;77.97;98024.78;4999978;28;20041;-81
2023/08/15 01:01:04;;;;;;;8.30;7.50;;;;;;;22.68;77.89;98126.31;4977456;28;20089;-83
2023/08/15 01:03:30;;;;;;;7.45;6.75;;;;;;;22.59;77.93;98102.75;4962329;28;20052;-81
2023/08/15 01:06:02;;;;;;;11.25;7.20;;;;;;;22.35;78.17;98064.81;4996770;28;20030;-82
2023/08/15 01:08:28;;;;;;;9.82;7.47;;;;;;;22.47;78.12;98092.41;4978548;28;20034;-80
2023/08/15 01:10:54;;;;;;;8.93;6.78;;;;;;;22.53;77.85;98090.28;4982469;28;20020;-83
2023/08/15 01:13:35;;;;;;;8.38;7.20;;;;;;;22.52;77.89;98086.72;4982105;28;20045;-82
2023/08/15 01:16:05;;;;;;;7.80;6.88;;;;;;;22.46;78.01;98079.81;4979286;28;20026;-82
2023/08/15 01:18:35;;;;;;;9.25;6.93;;;;;;;22.66;78.10;98109.34;4982850;28;20452;-80
2023/08/15 01:21:01;;;;;;;10.32;7.07;;;;;;;22.66;78.10;98114.06;4988164;28;20061;-79
2023/08/15 01:23:52;;;;;;;8.77;7.10;;;;;;;22.57;78.00;98113.22;4996001;28;20065;-80
2023/08/15 01:26:18;;;;;;;11.45;7.65;;;;;;;22.52;78.04;98099.66;4967898;28;20038;-81
2023/08/15 01:28:43;;;;;;;9.25;6.75;;;;;;;22.52;78.17;98099.66;4994397;28;20117;-80
2023/08/15 01:31:16;;;;;;;9.73;7.68;;;;;;;22.52;78.24;98102.41;4995343;28;20477;-82
2023/08/15 01:33:48;;;;;;;11.13;7.53;;;;;;;22.51;78.31;98103.53;4990096;28;20495;-81
2023/08/15 01:36:23;;;;;;;10.32;8.07;;;;;;;22.25;78.85;98089.00;4979773;28;20049;-83
2023/08/15 01:38:52;;;;;;;10.68;8.82;;;;;;;22.30;78.89;98094.34;4996298;28;20061;-83
2023/08/15 01:41:19;;;;;;;10.13;9.10;;;;;;;22.25;79.20;98080.78;5009906;28;20088;-81
2023/08/15 01:43:45;;;;;;;9.35;8.45;;;;;;;22.34;79.18;98092.56;4995352;28;20519;-81
2023/08/15 01:46:11;;;;;;;10.70;8.48;;;;;;;22.30;79.25;98097.06;4976961;28;20025;-81
2023/08/15 01:48:41;;;;;;;8.73;7.35;;;;;;;22.24;79.37;98081.91;4960408;28;20038;-79
2023/08/15 01:51:07;;;;;;;10.82;8.65;;;;;;;21.94;79.06;98046.06;5005479;28;20032;-79
2023/08/15 01:53:34;;;;;;;11.93;7.78;;;;;;;22.14;79.35;98074.81;4994014;28;20086;-78
2023/08/15 01:55:59;;;;;;;9.48;7.57;;;;;;;22.15;79.34;98079.16;4993406;28;20061;-79
2023/08/15 01:58:24;;;;;;;10.32;7.57;;;;;;;22.07;79.35;98070.94;4999097;28;20022;-78
2023/08/15 02:00:50;;;;;;;10.88;8.13;;;;;;;22.13;79.73;98086.09;4998206;28;20081;-80
2023/08/15 02:03:15;;;;;;;10.52;9.07;;;;;;;21.84;79.94;98053.81;4992057;28;20117;-81
2023/08/15 02:05:40;;;;;;;9.45;8.45;;;;;;;21.98;79.75;98082.69;4976703;28;20038;-81
2023/08/15 02:08:06;;;;;;;9.73;7.97;;;;;;;21.94;79.79;98078.16;4992278;28;20034;-81
2023/08/15 02:10:31;;;;;;;9.30;7.50;;;;;;;21.92;79.79;98070.25;4999282;28;20033;-81
2023/08/15 02:12:57;;;;;;;11.43;8.30;;;;;;;21.93;79.73;98071.91;4998863;28;20029;-82
2023/08/15 02:15:22;;;;;;;8.63;7.72;;;;;;;21.90;79.75;98083.50;4964928;28;20038;-80
2023/08/15 02:17:47;;;;;;;10.35;8.02;;;;;;;21.83;79.66;98069.41;4993239;28;20024;-80
2023/08/15 02:20:13;;;;;;;9.40;8.02;;;;;;;21.70;79.62;98051.19;4985673;28;20084;-79
2023/08/15 02:22:38;;;;;;;9.32;8.40;;;;;;;21.83;79.90;98076.84;4983059;28;20038;-79
2023/08/15 02:25:05;;;;;;;10.23;8.32;;;;;;;21.83;79.77;98077.66;4977544;28;20065;-81
2023/08/15 02:27:31;;;;;;;9.77;8.77;;;;;;;21.88;79.74;98085.75;4976046;28;20488;-81
2023/08/15 02:29:56;;;;;;;8.98;7.95;;;;;;;21.75;80.02;98075.69;4984725;28;20389;-80
2023/08/15 02:57:03;;;;;;;10.82;8.45;;;;;;;21.51;80.77;98078.06;5046957;28;20053;-81
2023/08/15 02:59:29;;;;;;;9.52;8.40;;;;;;;21.14;81.05;98030.03;5037778;28;20609;-80
2023/08/15 03:01:54;;;;;;;9.63;8.65;;;;;;;20.87;81.22;97982.88;5033457;28;20029;-81
2023/08/15 03:09:12;;;;;;;9.27;8.43;;;;;;;21.06;80.99;98013.59;5049657;28;20041;-83
2023/08/15 03:33:39;;;;;;;15.80;12.43;;;;;;;21.22;82.91;98105.16;5032748;28;20042;-82
2023/08/15 03:41:13;;;;;;;11.45;10.25;;;;;;;21.18;82.70;98104.19;4977480;28;20109;-81
2023/08/15 03:44:45;;;;;;;12.32;11.02;;;;;;;21.22;82.73;98105.16;4894037;29;20065;-80
2023/08/15 03:48:10;;;;;;;11.60;10.40;;;;;;;21.24;82.74;98102.91;4882538;29;20083;-80
2023/08/15 03:51:00;;;;;;;10.18;9.13;;;;;;;21.04;83.11;98074.16;4865254;29;20049;-80
2023/08/15 03:53:54;;;;;;;10.15;9.27;;;;;;;21.11;82.58;98066.31;4877283;29;20048;-81
2023/08/15 04:00:25;;;;;;;13.20;11.85;;;;;;;20.93;84.13;98118.53;4996135;28;20052;-79
2023/08/15 04:02:55;;;;;;;11.85;10.52;;;;;;;20.76;84.45;98102.81;5028508;28;20145;-79
2023/08/15 04:06:12;;;;;;;11.10;9.93;;;;;;;20.67;83.95;98078.13;5029337;28;20102;-79
2023/08/15 04:09:36;;;;;;;16.15;12.55;;;;;;;21.01;83.95;98120.50;4996868;28;20073;-80
2023/08/15 04:12:26;;;;;;;15.27;11.10;;;;;;;20.97;84.21;98097.59;5020754;28;20561;-79
2023/08/15 04:15:53;;;;;;;11.85;10.15;;;;;;;21.09;84.08;98112.38;5026611;28;20091;-77
2023/08/15 04:22:28;;;;;;;11.52;10.30;;;;;;;21.16;83.92;98122.88;5007366;28;20064;-80
2023/08/15 04:25:52;;;;;;;12.82;10.60;;;;;;;20.91;84.11;98071.50;5001680;28;20044;-78
2023/08/15 04:29:08;;;;;;;16.48;13.20;;;;;;;21.26;84.11;98117.91;5022150;28;20045;-82
2023/08/15 04:32:04;;;;;;;15.70;14.10;;;;;;;21.24;84.18;98111.13;5014889;28;20392;-78
2023/08/15 04:34:38;;;;;;;15.85;13.32;;;;;;;20.85;84.34;98064.50;5005785;28;20136;-80
2023/08/15 04:42:09;;;;;;;12.40;11.10;;;;;;;21.10;84.29;98113.97;4985472;28;20092;-81
2023/08/15 04:45:43;;;;;;;13.30;10.75;;;;;;;21.21;84.02;98114.53;5007322;28;20044;-80
2023/08/15 05:16:35;;;;;;;12.68;11.38;;;;;;;21.56;84.84;98105.31;5051672;28;20194;-77
2023/08/15 05:19:01;;;;;;;11.68;10.48;;;;;;;21.20;84.61;98047.97;5031725;28;20057;-79
2023/08/15 05:21:28;;;;;;;12.70;11.23;;;;;;;21.46;84.28;98075.47;5012736;28;20114;-79
2023/08/15 05:23:53;;;;;;;13.13;11.57;;;;;;;21.88;84.42;98128.81;5032240;28;20044;-77
2023/08/15 05:26:31;;;;;;;13.40;12.10;;;;;;;21.89;84.26;98124.97;4978244;28;20101;-80
2023/08/15 05:28:59;;;;;;;14.70;13.18;;;;;;;21.74;84.96;98123.44;5015488;28;20091;-79
2023/08/15 05:31:25;;;;;;;17.67;13.13;;;;;;;21.65;85.39;98141.78;5030152;28;20022;-80
2023/08/15 05:33:50;;;;;;;14.57;12.57;;;;;;;21.68;86.54;98157.59;5005334;28;20030;-78
2023/08/15 05:36:15;;;;;;;13.73;12.32;;;;;;;21.80;86.43;98154.22;5015812;28;20595;-79
2023/08/15 05:38:41;;;;;;;13.40;10.63;;;;;;;22.01;85.85;98156.09;5007120;28;20030;-78
2023/08/15 05:41:06;;;;;;;13.27;11.85;;;;;;;22.19;85.78;98161.63;4996244;28;20029;-80
2023/08/15 05:43:34;;;;;;;12.82;10.90;;;;;;;22.26;85.29;98151.81;5012115;28;20042;-78
2023/08/15 05:45:59;;;;;;;15.25;12.35;;;;;;;22.39;84.97;98166.50;5048384;28;20030;-78
2023/08/15 05:48:25;;;;;;;19.13;16.85;;;;;;;22.30;85.63;98168.44;5030018;28;20476;-79
2023/08/15 05:50:50;;;;;;;20.98;17.40;;;;;;;22.37;85.82;98179.72;5032236;28;20028;-78
2023/08/15 05:53:16;;;;;;;20.80;18.02;;;;;;;22.30;86.33;98173.91;5028222;28;20067;-78
2023/08/15 05:55:42;;;;;;;19.23;17.13;;;;;;;22.37;86.21;98171.50;5014069;28;20038;-79
2023/08/15 05:58:08;;;;;;;19.20;17.17;;;;;;;22.59;85.64;98185.09;4988677;28;20033;-80
2023/08/15 06:00:34;;;;;;;19.55;17.35;;;;;;;22.41;86.06;98173.28;5010902;28;20519;-80
2023/08/15 06:03:00;;;;;;;18.02;16.33;;;;;;;22.36;86.12;98167.13;5047877;28;20048;-81
2023/08/15 06:05:29;;;;;;;17.83;16.08;;;;;;;22.63;86.03;98194.31;5031476;28;20022;-78
2023/08/15 06:07:54;;;;;;;17.65;15.85;;;;;;;22.76;85.57;98187.03;5015148;28;20037;-78
2023/08/15 06:10:20;;;;;;;19.65;17.42;;;;;;;22.69;84.90;98171.06;5031800;28;20021;-78
2023/08/15 06:12:45;;;;;;;17.38;15.18;;;;;;;23.05;84.94;98201.75;4998213;28;20125;-78
2023/08/15 06:15:10;;;;;;;17.67;15.00;;;;;;;23.22;84.61;98207.19;5031043;28;20029;-78
2023/08/15 06:17:36;;;;;;;18.35;15.68;;;;;;;23.34;84.18;98204.63;5014876;28;20041;-79
2023/08/15 06:20:05;;;;;;;16.33;14.50;;;;;;;23.44;83.58;98230.16;5031684;28;20051;-77
2023/08/15 06:22:31;;;;;;;16.95;14.38;;;;;;;23.38;83.89;98209.47;5015744;28;20041;-81
2023/08/15 06:24:56;;;;;;;17.33;14.40;;;;;;;23.34;83.96;98220.25;5012436;28;20022;-78
2023/08/15 06:27:22;;;;;;;15.98;14.38;;;;;;;23.38;83.50;98222.06;5002670;28;20489;-79
2023/08/15 06:29:48;;;;;;;15.25;13.60;;;;;;;23.46;82.59;98205.88;5012452;28;20048;-78
2023/08/15 06:32:34;;;;;;;16.48;13.52;;;;;;;23.55;81.94;98209.44;5031905;28;20036;-78
2023/08/15 06:35:01;;;;;;;;;;;;;;;23.49;82.64;98227.22;5031389;28;20045;-79
2023/08/15 06:37:26;;;;;;;15.90;12.57;;;;;;;23.67;82.48;98218.59;5014829;28;19909;-80
2023/08/15 06:39:51;;;;;;;16.20;14.10;;;;;;;23.52;82.00;98169.66;5032809;28;20510;-83
2023/08/15 06:42:17;;;;;;;15.93;13.40;;;;;;;23.57;81.62;98168.66;5048814;28;20034;-80
2023/08/15 06:44:43;;;;;;;16.35;12.60;;;;;;;23.83;82.07;98232.59;5035241;28;20037;-81
2023/08/15 06:47:09;;;;;;;13.32;11.95;;;;;;;23.55;81.89;98192.94;5035587;28;20513;-79
2023/08/15 06:49:34;;;;;;;14.10;12.57;;;;;;;23.78;82.20;98241.84;5002799;28;20117;-77
2023/08/15 06:51:59;;;;;;;14.52;13.02;;;;;;;23.75;82.39;98244.47;5010116;28;20029;-78
2023/08/15 06:54:25;;;;;;;16.27;13.13;;;;;;;23.80;81.99;98249.78;5012765;28;20571;-78
2023/08/15 06:56:50;;;;;;;13.43;12.13;;;;;;;23.91;81.66;98262.03;4995093;28;20146;-79
2023/08/15 06:59:16;;;;;;;15.70;12.93;;;;;;;24.02;82.09;98257.78;5006503;28;20045;-78
2023/08/15 07:01:41;;;;;;;15.02;13.45;;;;;;;23.96;82.02;98253.63;5009883;28;20022;-78
2023/08/15 07:04:08;;;;;;;16.65;14.93;;;;;;;23.71;82.20;98238.00;5019111;28;20061;-80
2023/08/15 07:06:33;;;;;;;18.45;16.55;;;;;;;23.89;81.60;98253.31;5009965;28;20112;-78
2023/08/15 07:09:01;;;;;;;15.95;14.30;;;;;;;23.81;81.26;98221.13;5052836;28;20072;-80
2023/08/15 07:11:27;;;;;;;14.98;13.27;;;;;;;24.13;81.02;98226.06;5016204;28;20505;-78
2023/08/15 07:13:52;;;;;;;15.98;12.65;;;;;;;24.33;81.08;98221.72;5000317;28;20049;-82
2023/08/15 07:16:18;;;;;;;16.23;13.02;;;;;;;24.52;80.68;98222.91;4989600;28;20033;-80
2023/08/15 07:18:43;;;;;;;19.63;13.93;;;;;;;24.59;80.07;98217.66;5013078;28;20043;-81
2023/08/15 07:21:08;;;;;;;15.70;13.93;;;;;;;24.71;79.49;98225.97;5017671;28;20034;-80
2023/08/15 07:23:34;;;;;;;14.85;13.30;;;;;;;24.57;79.27;98191.59;5016368;28;20105;-80
2023/08/15 07:26:00;;;;;;;17.08;12.70;;;;;;;24.88;78.28;98213.25;5014175;28;20025;-79
2023/08/15 07:28:25;;;;;;;15.52;12.32;;;;;;;24.82;78.26;98192.56;5011710;28;20536;-80
2023/08/15 07:30:51;;;;;;;12.90;11.50;;;;;;;25.03;77.14;98204.38;4994742;28;20028;-81
2023/08/15 07:33:16;;;;;;;15.13;11.43;;;;;;;25.31;76.94;98228.25;5035046;28;20458;-80
2023/08/15 07:35:42;;;;;;;15.02;12.23;;;;;;;25.45;75.58;98241.78;5031757;28;20437;-81
2023/08/15 07:38:08;;;;;;;13.27;11.93;;;;;;;25.43;76.17;98241.28;5034770;28;20046;-81
2023/08/15 07:40:33;;;;;;;14.48;11.90;;;;;;;25.43;76.60;98235.75;5002391;28;20093;-80
2023/08/15 07:42:59;;;;;;;11.95;10.85;;;;;;;25.45;76.77;98230.75;5018294;28;20041;-81
2023/08/15 07:45:24;;;;;;;14.48;12.25;;;;;;;25.32;75.48;98229.06;5010597;28;20025;-81
2023/08/15 07:47:52;;;;;;;14.32;11.90;;;;;;;25.53;74.85;98246.41;5034852;28;20519;-80
2023/08/15 07:50:22;;;;;;;13.68;12.38;;;;;;;25.67;74.77;98252.41;4991160;28;20026;-81
2023/08/15 07:52:48;;;;;;;13.60;11.20;;;;;;;25.58;74.40;98198.50;5016932;28;20444;-80
2023/08/15 07:55:13;;;;;;;11.05;9.95;;;;;;;25.99;74.26;98229.47;5017022;28;20021;-81
2023/08/15 07:57:39;;;;;;;11.15;10.02;;;;;;;26.14;73.28;98238.25;5004269;28;20549;-80
2023/08/15 08:00:06;;;;;;;12.27;10.70;;;;;;;26.25;72.99;98228.34;5001560;28;20041;-82
2023/08/15 08:02:37;;;;;;;10.57;9.48;;;;;;;26.41;72.28;98234.78;5050114;28;20504;-81
2023/08/15 08:05:06;;;;;;;11.38;10.15;;;;;;;26.45;71.61;98235.69;5002234;28;20055;-81
2023/08/15 08:07:35;;;;;;;14.65;10.23;;;;;;;26.49;70.75;98236.63;5051477;28;20021;-80
2023/08/15 08:10:00;;;;;;;10.68;9.57;;;;;;;26.38;69.45;98221.66;5034811;28;20123;-81
2023/08/15 08:12:27;;;;;;;11.15;10.00;;;;;;;26.33;69.48;98230.16;5011401;28;20017;-80
2023/08/15 08:14:52;;;;;;;12.75;9.68;;;;;;;26.29;69.26;98232.03;5017576;28;20048;-81
2023/08/15 08:17:18;;;;;;;12.65;8.60;;;;;;;26.11;68.62;98219.59;5050497;28;20412;-81
2023/08/15 08:19:44;;;;;;;9.98;8.77;;;;;;;26.36;69.21;98235.81;5014147;28;20037;-83
2023/08/15 08:22:10;;;;;;;10.95;9.48;;;;;;;26.34;69.90;98226.28;4987528;28;20076;-81
2023/08/15 08:24:35;;;;;;;11.73;10.50;;;;;;;26.55;69.90;98249.03;5007067;28;20033;-81
2023/08/15 08:27:01;;;;;;;12.90;10.20;;;;;;;26.51;70.19;98237.88;5003073;28;20025;-82
2023/08/15 08:29:26;;;;;;;12.32;11.02;;;;;;;26.64;70.21;98247.75;5053296;28;20033;-81
2023/08/15 08:31:51;;;;;;;15.25;10.85;;;;;;;26.25;70.37;98184.16;5019875;28;20439;-81
2023/08/15 08:34:17;;;;;;;12.00;10.68;;;;;;;26.82;70.60;98245.56;5010241;28;20065;-81
2023/08/15 08:36:43;;;;;;;11.60;10.45;;;;;;;26.50;70.17;98169.16;5020256;28;20078;-82
2023/08/15 08:39:08;;;;;;;12.90;11.60;;;;;;;26.94;69.61;98225.38;5007808;28;20121;-82
2023/08/15 08:41:37;;;;;;;11.77;10.35;;;;;;;27.07;69.72;98222.22;4999699;28;20022;-82
2023/08/15 08:44:03;;;;;;;12.68;10.65;;;;;;;26.95;69.95;98191.06;5028913;28;20033;-81
2023/08/15 08:46:29;;;;;;;11.55;10.45;;;;;;;27.12;69.27;98191.53;5019392;28;20048;-82
2023/08/15 08:48:56;;;;;;;12.52;9.68;;;;;;;27.55;68.86;98214.88;5016293;28;20045;-81
2023/08/15 08:51:23;;;;;;;11.13;9.98;;;;;;;27.75;68.13;98227.69;4983425;28;20557;-81
2023/08/15 08:53:48;;;;;;;11.77;10.63;;;;;;;27.78;67.80;98218.66;5042318;28;20101;-80
2023/08/15 08:56:14;;;;;;;12.43;9.88;;;;;;;27.80;67.19;98221.88;5050200;28;20025;-80
2023/08/15 08:58:41;;;;;;;11.30;9.65;;;;;;;27.76;67.16;98227.31;4998811;28;20482;-81
2023/08/15 09:01:07;;;;;;;11.68;9.90;;;;;;;27.68;67.12;98210.91;4998725;28;20030;-81
2023/08/15 09:03:32;;;;;;;11.57;10.35;;;;;;;27.81;67.11;98223.47;4991926;28;20468;-81
2023/08/15 09:05:58;;;;;;;11.90;10.73;;;;;;;27.81;67.24;98209.66;5011857;28;20026;-80
2023/08/15 09:08:24;;;;;;;11.50;10.40;;;;;;;27.68;67.42;98180.44;5028526;28;20034;-80
2023/08/15 09:10:50;;;;;;;12.40;10.30;;;;;;;27.74;66.56;98192.84;4998557;28;20660;-79
2023/08/15 09:13:22;;;;;;;10.45;9.35;;;;;;;28.00;66.13;98215.31;5011953;28;20068;-80
2023/08/15 09:15:48;;;;;;;13.27;9.38;;;;;;;28.00;65.88;98187.63;4995546;28;20033;-80
2023/08/15 09:18:14;;;;;;;10.75;9.40;;;;;;;28.21;65.34;98231.63;5009280;28;20030;-81
2023/08/15 09:20:46;;;;;;;10.70;9.27;;;;;;;28.26;63.67;98221.09;5014868;28;20038;-80
2023/08/15 09:23:12;;;;;;;11.10;9.18;;;;;;;28.33;64.11;98235.13;5031867;28;20037;-81
2023/08/15 09:25:38;;;;;;;10.18;8.70;;;;;;;28.03;63.71;98178.56;5048139;28;20491;-81
2023/08/15 09:28:06;;;;;;;12.75;9.68;;;;;;;28.30;64.16;98208.13;4998725;28;20048;-81
2023/08/15 09:30:32;;;;;;;12.55;10.00;;;;;;;28.08;64.85;98208.75;5031392;28;20025;-81
2023/08/15 09:33:00;;;;;;;11.30;9.43;;;;;;;28.19;64.63;98215.38;4998551;28;20029;-81
2023/08/15 09:35:26;;;;;;;11.70;9.95;;;;;;;28.12;65.31;98215.22;5020134;28;20029;-80
2023/08/15 09:37:52;;;;;;;10.93;9.75;;;;;;;28.08;66.43;98228.97;5031503;28;20033;-81
2023/08/15 09:40:23;;;;;;;14.50;10.10;;;;;;;28.14;65.51;98207.34;5015127;28;20025;-81
2023/08/15 09:42:54;;;;;;;10.18;9.23;;;;;;;28.12;65.77;98206.91;5031585;28;20059;-81
2023/08/15 09:45:20;;;;;;;10.75;9.65;;;;;;;28.16;65.54;98212.50;5004974;28;20140;-81
2023/08/15 09:47:45;;;;;;;10.93;9.80;;;;;;;28.07;65.51;98201.63;5029244;28;20056;-80
2023/08/15 09:50:13;;;;;;;11.50;9.85;;;;;;;27.86;66.45;98184.47;4999237;28;20088;-81
2023/08/15 09:52:46;;;;;;;13.65;9.52;;;;;;;28.18;66.68;98193.56;5027814;28;20056;-81
2023/08/15 09:55:14;;;;;;;10.55;9.45;;;;;;;28.17;66.75;98178.91;4995919;28;20508;-80
2023/08/15 09:57:41;;;;;;;10.73;9.40;;;;;;;28.43;66.54;98201.28;5010820;28;20036;-82
2023/08/15 10:00:17;;;;;;;10.52;9.45;;;;;;;28.39;65.40;98217.03;5007343;28;20040;-82
2023/08/15 10:02:46;;;;;;;9.65;8.80;;;;;;;28.39;65.71;98194.06;5000084;28;20033;-80
2023/08/15 10:05:13;;;;;;;12.07;9.13;;;;;;;28.53;65.45;98208.25;5011634;28;20038;-80
2023/08/15 10:07:41;;;;;;;10.57;8.65;;;;;;;28.77;65.69;98215.56;5011075;28;20042;-80
2023/08/15 10:10:08;;;;;;;10.30;9.30;;;;;;;29.02;63.96;98214.09;5005692;28;20087;-80
2023/08/15 10:12:35;;;;;;;10.75;9.65;;;;;;;29.00;64.40;98213.66;5020677;28;20033;-81
2023/08/15 10:15:00;;;;;;;10.60;9.68;;;;;;;28.95;63.74;98217.53;4998345;28;20038;-80
2023/08/15 10:17:28;;;;;;;12.40;9.20;;;;;;;29.16;62.86;98222.72;5002718;28;20381;-82
2023/08/15 10:19:54;;;;;;;9.82;8.93;;;;;;;29.23;61.96;98215.38;5020495;28;20108;-79
2023/08/15 10:22:20;;;;;;;10.05;9.05;;;;;;;28.90;62.07;98164.31;5018029;28;20116;-81
2023/08/15 10:24:46;;;;;;;10.13;9.13;;;;;;;29.04;62.89;98197.91;5013092;28;20025;-80
2023/08/15 10:27:12;;;;;;;9.50;8.48;;;;;;;29.27;62.17;98201.56;5051123;28;20033;-80
2023/08/15 10:29:58;;;;;;;10.15;9.07;;;;;;;29.69;60.54;98210.69;5052140;28;20018;-81
2023/08/15 10:32:28;;;;;;;10.88;9.07;;;;;;;29.71;59.55;98204.78;5019491;28;20029;-81
2023/08/15 10:35:01;;;;;;;9.43;8.43;;;;;;;29.96;59.71;98215.19;5035096;28;20045;-81
2023/08/15 10:37:33;;;;;;;9.88;8.73;;;;;;;30.17;59.47;98183.34;5032719;28;20042;-81
2023/08/15 10:40:07;;;;;;;8.57;7.78;;;;;;;30.45;59.10;98217.19;5019355;28;20047;-81
2023/08/15 10:43:00;;;;;;;11.45;8.90;;;;;;;29.85;59.19;98183.63;5035826;28;20038;-82
2023/08/15 10:45:28;;;;;;;11.35;8.25;;;;;;;29.60;59.60;98182.38;5052464;28;20537;-81
2023/08/15 10:47:58;;;;;;;8.73;7.93;;;;;;;29.58;61.70;98189.47;5014254;28;20112;-82
2023/08/15 10:50:24;;;;;;;9.43;8.55;;;;;;;29.77;60.83;98215.25;5024717;28;20037;-82
2023/08/15 10:52:57;;;;;;;9.20;8.30;;;;;;;29.89;60.40;98234.50;5004693;28;20423;-81
2023/08/15 10:55:26;;;;;;;9.18;8.38;;;;;;;29.98;60.44;98225.91;5004825;28;20099;-81
2023/08/15 10:57:57;;;;;;;8.45;7.60;;;;;;;30.01;60.95;98220.41;5018093;28;20055;-83
2023/08/15 11:00:23;;;;;;;9.90;8.88;;;;;;;29.94;59.97;98186.94;5018760;28;20075;-80
2023/08/15 11:02:51;;;;;;;8.57;7.68;;;;;;;30.27;58.58;98222.41;5031829;28;20026;-81
2023/08/15 11:05:20;;;;;;;12.40;8.60;;;;;;;30.25;59.75;98218.41;4996097;28;20041;-81
2023/08/15 11:07:45;;;;;;;9.05;8.15;;;;;;;30.09;59.10;98222.16;5015423;28;20478;-81
2023/08/15 11:10:14;;;;;;;9.52;8.30;;;;;;;30.05;58.09;98215.75;5000927;28;20041;-81
2023/08/15 11:12:50;;;;;;;11.63;7.88;;;;;;;30.07;58.11;98207.81;5034393;28;20017;-80
2023/08/15 11:15:16;;;;;;;9.25;7.57;;;;;;;29.63;59.41;98162.22;5035012;28;20034;-82
2023/08/15 11:18:00;;;;;;;9.55;8.25;;;;;;;29.34;59.81;98151.75;5015473;28;20101;-79
2023/08/15 11:20:29;;;;;;;8.15;7.38;;;;;;;29.85;60.06;98219.72;5030186;28;20034;-82
2023/08/15 11:22:56;;;;;;;11.35;7.95;;;;;;;29.60;60.40;98201.00;4994285;28;20029;-82
2023/08/15 11:25:22;;;;;;;9.32;7.93;;;;;;;29.67;60.27;98238.03;5000923;28;20018;-81
2023/08/15 11:27:50;;;;;;;8.57;7.68;;;;;;;29.87;60.31;98236.81;5033732;28;20380;-81
2023/08/15 11:30:16;;;;;;;8.40;7.60;;;;;;;30.05;59.97;98235.19;5004380;28;20033;-81
2023/08/15 11:32:42;;;;;;;9.65;7.72;;;;;;;30.27;59.03;98238.31;5013540;28;20037;-82
2023/08/15 11:35:09;;;;;;;9.48;7.72;;;;;;;29.94;59.61;98192.50;5014146;28;20106;-81
2023/08/15 11:37:36;;;;;;;11.25;8.00;;;;;;;30.34;59.17;98225.34;4994359;28;20041;-82
2023/08/15 11:40:02;;;;;;;8.80;7.78;;;;;;;30.24;59.13;98189.84;5033562;28;20071;-81
2023/08/15 11:42:27;;;;;;;9.63;7.68;;;;;;;30.45;57.74;98212.44;5013349;28;20057;-81
2023/08/15 11:45:30;;;;;;;9.45;7.93;;;;;;;30.75;58.04;98237.50;5015432;28;20476;-82
2023/08/15 11:48:05;;;;;;;8.15;7.20;;;;;;;30.76;56.92;98216.81;5030149;28;20420;-81
2023/08/15 11:50:33;;;;;;;8.25;7.45;;;;;;;30.61;56.44;98198.34;4994171;28;20038;-81
2023/08/15 11:53:00;;;;;;;8.63;7.78;;;;;;;30.75;56.81;98243.84;5003007;28;20419;-83
2023/08/15 11:55:33;;;;;;;9.18;7.53;;;;;;;30.84;55.45;98240.78;5000495;28;20040;-84
2023/08/15 11:57:58;;;;;;;9.27;7.60;;;;;;;30.94;56.16;98240.19;5033602;28;20049;-84
2023/08/15 12:00:27;;;;;;;9.85;7.95;;;;;;;30.76;56.13;98239.88;5016553;28;20480;-83
2023/08/15 12:02:54;;;;;;;9.18;7.70;;;;;;;30.60;57.61;98230.09;5029755;28;20044;-82
2023/08/15 12:05:20;;;;;;;7.63;6.90;;;;;;;30.46;57.26;98227.13;4981888;28;20041;-84
2023/08/15 12:07:48;;;;;;;8.13;7.35;;;;;;;30.29;56.17;98197.06;5013156;28;20038;-82
2023/08/15 12:10:14;;;;;;;10.70;7.15;;;;;;;30.54;57.29;98232.44;5016640;28;20085;-78
2023/08/15 12:12:42;;;;;;;8.15;7.35;;;;;;;30.40;58.26;98231.41;5032606;28;20087;-80
2023/08/15 12:15:09;;;;;;;11.40;8.10;;;;;;;30.34;57.82;98238.47;5048796;28;20032;-80
2023/08/15 12:17:35;;;;;;;8.43;7.18;;;;;;;30.28;57.20;98223.22;5048755;28;20120;-80
2023/08/15 12:20:03;;;;;;;9.10;7.90;;;;;;;30.38;58.12;98233.75;5049122;28;20029;-80
2023/08/15 12:22:29;;;;;;;11.20;7.80;;;;;;;30.25;57.69;98218.41;5015776;28;20060;-81
2023/08/15 12:24:55;;;;;;;11.15;7.95;;;;;;;30.17;58.79;98222.25;5048922;28;20467;-80
2023/08/15 12:27:20;;;;;;;9.30;7.50;;;;;;;30.10;59.97;98236.84;5049007;28;20052;-80
2023/08/15 12:29:47;;;;;;;11.02;7.97;;;;;;;29.91;59.43;98218.28;4999189;28;20105;-81
2023/08/15 12:32:13;;;;;;;10.65;7.57;;;;;;;30.00;60.31;98232.72;5015691;28;20423;-81
2023/08/15 12:34:38;;;;;;;8.98;7.43;;;;;;;29.60;60.70;98201.00;5030748;28;20022;-80
2023/08/15 12:37:04;;;;;;;9.70;7.88;;;;;;;29.94;60.90;98231.41;5048783;28;20085;-80
2023/08/15 12:39:29;;;;;;;11.05;8.30;;;;;;;29.74;60.97;98202.06;5028504;28;20021;-80
2023/08/15 12:41:55;;;;;;;10.30;8.55;;;;;;;29.73;61.96;98211.59;4988050;28;20065;-80
2023/08/15 12:44:20;;;;;;;8.68;7.78;;;;;;;29.83;62.49;98233.19;5013741;28;20100;-80
2023/08/15 12:46:46;;;;;;;10.07;8.93;;;;;;;29.84;60.54;98243.16;5012220;28;20037;-80
2023/08/15 12:49:11;;;;;;;9.05;7.90;;;;;;;29.64;61.09;98216.53;5008527;28;20028;-79
2023/08/15 12:51:37;;;;;;;11.30;8.60;;;;;;;29.68;61.83;98234.09;4988263;28;20495;-80
2023/08/15 12:54:04;;;;;;;10.27;8.75;;;;;;;29.49;61.33;98220.25;5031352;28;20025;-81
2023/08/15 12:56:29;;;;;;;9.25;8.35;;;;;;;29.55;62.03;98235.41;4998810;28;20491;-79
2023/08/15 12:58:54;;;;;;;10.38;8.98;;;;;;;29.42;62.10;98214.56;5015043;28;20025;-82
2023/08/15 13:01:20;;;;;;;9.80;8.65;;;;;;;29.12;62.34;98189.38;5011918;28;20165;-80
2023/08/15 13:03:46;;;;;;;9.98;8.98;;;;;;;29.32;62.75;98232.59;4994300;28;20025;-79
2023/08/15 13:06:11;;;;;;;12.90;8.82;;;;;;;29.12;62.95;98228.22;5011901;28;20030;-81
2023/08/15 13:08:36;;;;;;;10.35;8.35;;;;;;;29.07;62.66;98238.78;5009621;28;20037;-80
2023/08/15 13:11:02;;;;;;;9.75;7.75;;;;;;;29.03;62.62;98232.38;5009869;28;20146;-80
2023/08/15 13:13:27;;;;;;;9.50;8.50;;;;;;;28.98;63.87;98218.78;5013032;28;20439;-80